Huvudsida
METAR-TAF:

METAR-TAF

Flygplatser :

Malmens flygplats

Linköping, Sverige

latitud: 58-24N, longitud: 015-31E, höjd: 93 m

Aktuellt väderrapport

Denna rapport gjordes för 23 minuter sedan, klockan 12:20 UTC
Vind 4 kt från nord
Temperatur 0°C
Fuktighet 86%
Tryck 1031 hPa
Sikt 10 km eller mer
Få moln på en höjd av 700 ft
Brutna moln på en höjd av 1300 ft
lätt snö

METAR: ESCF 121220Z 36004KT 9999 -SN FEW007 BKN013 M00/M02 Q1031

Tid: 13:43 (12:43 UTC)

Väderprognos

Denna rapport gjordes för 1 timme och 13 minuter sedan, klockan 11:30 UTC
Prognos gäller från 12 kl. 12 UTC till 12 kl. 16 UTC
Vind 8 kt från nord i byarna ända upp till 12 kt
Sikt 10 km eller mer
Brutna moln på en höjd av 1600 ft
Temporärt
från 12 kl. 12 UTC till 12 kl. 16 UTC
Sikt: 3000 m
Brutna moln på en höjd av 700 ft
snö

TAF: ESCF 121130Z 1212/1216 01008G12KT 9999 BKN016 TEMPO 1212/1216 3000 SN BKN007 RMK MIL

Aktuella väderrapporter och prognoser från 4000 flygplatser (METAR- och TAF-rapporter).

De tillgängliga stationerna syns som gula och röda prickar på kartan.

För musen över prickarna för att se namnen på stationerna.

Klicka sedan för att få väderrapporter och prognoser.

För att ändra kartan: Klicka på de gröna knapparna med ett svart kors på för att zooma in; den gröna knappen med ett streck på för att zooma ut; eller på de gröna pilarna för angränsande kartor.


METAR-TAF: